sensor_id;sensor_type;location;lat;lon;timestamp;pressure;altitude;pressure_sealevel;temperature;humidity
39491;BME280;25175;50.140;18.990;2023-02-28T00:01:18;99702.91;;;0.48;43.91
39491;BME280;25175;50.140;18.990;2023-02-28T00:04:25;99721.72;;;0.61;43.71
39491;BME280;25175;50.140;18.990;2023-02-28T00:07:31;99716.41;;;0.62;44.00
39491;BME280;25175;50.140;18.990;2023-02-28T00:10:35;99714.31;;;0.67;43.89
39491;BME280;25175;50.140;18.990;2023-02-28T00:13:44;99646.53;;;0.20;44.26
39491;BME280;25175;50.140;18.990;2023-02-28T00:16:50;99739.81;;;0.72;43.55
39491;BME280;25175;50.140;18.990;2023-02-28T00:19:58;99739.81;;;0.72;43.83
39491;BME280;25175;50.140;18.990;2023-02-28T00:23:05;99680.22;;;0.40;43.74
39491;BME280;25175;50.140;18.990;2023-02-28T00:26:11;99641.38;;;0.31;43.98
39491;BME280;25175;50.140;18.990;2023-02-28T00:29:19;99781.28;;;0.81;44.58
39491;BME280;25175;50.140;18.990;2023-02-28T00:32:24;99695.66;;;0.64;44.71
39491;BME280;25175;50.140;18.990;2023-02-28T00:35:32;99723.88;;;0.89;44.16
39491;BME280;25175;50.140;18.990;2023-02-28T00:38:38;99741.72;;;0.92;43.96
39491;BME280;25175;50.140;18.990;2023-02-28T00:41:43;99738.91;;;0.95;44.39
39491;BME280;25175;50.140;18.990;2023-02-28T00:44:49;99739.38;;;1.00;44.07
39491;BME280;25175;50.140;18.990;2023-02-28T00:47:53;99741.59;;;1.04;43.74
39491;BME280;25175;50.140;18.990;2023-02-28T00:51:02;99737.13;;;1.06;44.03
39491;BME280;25175;50.140;18.990;2023-02-28T00:54:06;99736.78;;;1.11;44.11
39491;BME280;25175;50.140;18.990;2023-02-28T00:57:12;99744.28;;;1.14;44.09
39491;BME280;25175;50.140;18.990;2023-02-28T01:00:17;99752.75;;;1.16;43.88
39491;BME280;25175;50.140;18.990;2023-02-28T01:03:23;99750.16;;;1.16;43.49
39491;BME280;25175;50.140;18.990;2023-02-28T01:06:30;99752.06;;;1.14;43.96
39491;BME280;25175;50.140;18.990;2023-02-28T01:09:35;99737.72;;;1.10;44.71
39491;BME280;25175;50.140;18.990;2023-02-28T01:12:40;99740.28;;;1.10;44.71
39491;BME280;25175;50.140;18.990;2023-02-28T01:15:50;99735.13;;;1.10;44.56
39491;BME280;25175;50.140;18.990;2023-02-28T01:18:56;99684.75;;;0.82;45.11
39491;BME280;25175;50.140;18.990;2023-02-28T01:22:05;99721.63;;;0.95;45.36
39491;BME280;25175;50.140;18.990;2023-02-28T01:25:10;99741.13;;;0.99;44.23
39491;BME280;25175;50.140;18.990;2023-02-28T01:28:15;99731.72;;;0.87;44.48
39491;BME280;25175;50.140;18.990;2023-02-28T01:31:21;99713.06;;;0.84;44.04
39491;BME280;25175;50.140;18.990;2023-02-28T01:34:27;99727.84;;;0.82;44.36
39491;BME280;25175;50.140;18.990;2023-02-28T01:37:34;99721.72;;;0.83;44.67
39491;BME280;25175;50.140;18.990;2023-02-28T01:40:39;99706.25;;;0.72;44.49
39491;BME280;25175;50.140;18.990;2023-02-28T01:44:00;99722.44;;;0.74;44.60
39491;BME280;25175;50.140;18.990;2023-02-28T01:47:08;99702.81;;;0.71;44.50
39491;BME280;25175;50.140;18.990;2023-02-28T01:50:16;99696.94;;;0.58;44.48
39491;BME280;25175;50.140;18.990;2023-02-28T01:53:33;99707.50;;;0.66;45.00
39491;BME280;25175;50.140;18.990;2023-02-28T01:56:46;99724.75;;;0.66;45.28
39491;BME280;25175;50.140;18.990;2023-02-28T02:00:00;99713.38;;;0.68;45.39
39491;BME280;25175;50.140;18.990;2023-02-28T02:03:16;99707.28;;;0.69;45.45
39491;BME280;25175;50.140;18.990;2023-02-28T02:06:25;99719.47;;;0.67;45.51
39491;BME280;25175;50.140;18.990;2023-02-28T02:09:36;99718.69;;;0.67;45.90
39491;BME280;25175;50.140;18.990;2023-02-28T02:12:59;99713.84;;;0.62;45.56
39491;BME280;25175;50.140;18.990;2023-02-28T02:16:35;99706.22;;;0.50;45.28
39491;BME280;25175;50.140;18.990;2023-02-28T02:20:27;99710.63;;;0.37;45.53
39491;BME280;25175;50.140;18.990;2023-02-28T02:28:27;99709.63;;;0.16;45.69
39491;BME280;25175;50.140;18.990;2023-02-28T02:32:25;99691.47;;;-0.06;45.85
39491;BME280;25175;50.140;18.990;2023-02-28T02:35:55;99709.53;;;-0.06;46.12
39491;BME280;25175;50.140;18.990;2023-02-28T02:39:16;99699.78;;;-0.14;46.27
39491;BME280;25175;50.140;18.990;2023-02-28T02:42:31;99700.34;;;-0.21;46.67
39491;BME280;25175;50.140;18.990;2023-02-28T02:45:49;99603.09;;;-0.90;46.48
39491;BME280;25175;50.140;18.990;2023-02-28T02:49:02;99714.50;;;-0.27;46.66
39491;BME280;25175;50.140;18.990;2023-02-28T02:52:17;99712.94;;;-0.29;47.08
39491;BME280;25175;50.140;18.990;2023-02-28T02:55:28;99706.16;;;-0.30;47.01
39491;BME280;25175;50.140;18.990;2023-02-28T02:58:40;99719.25;;;-0.33;46.80
39491;BME280;25175;50.140;18.990;2023-02-28T03:01:52;99704.34;;;-0.41;46.72
39491;BME280;25175;50.140;18.990;2023-02-28T03:05:04;99702.03;;;-0.56;46.81
39491;BME280;25175;50.140;18.990;2023-02-28T03:08:19;99694.72;;;-0.62;46.82
39491;BME280;25175;50.140;18.990;2023-02-28T03:11:23;99698.56;;;-0.68;46.96
39491;BME280;25175;50.140;18.990;2023-02-28T03:14:40;99720.28;;;-0.59;47.44
39491;BME280;25175;50.140;18.990;2023-02-28T03:18:03;99715.94;;;-0.59;47.30
39491;BME280;25175;50.140;18.990;2023-02-28T03:21:22;99720.50;;;-0.62;47.14
39491;BME280;25175;50.140;18.990;2023-02-28T03:24:43;99724.22;;;-0.66;47.20
39491;BME280;25175;50.140;18.990;2023-02-28T03:28:01;99711.66;;;-0.71;47.41
39491;BME280;25175;50.140;18.990;2023-02-28T03:31:15;99711.06;;;-0.74;47.59
39491;BME280;25175;50.140;18.990;2023-02-28T03:34:29;99712.91;;;-0.76;47.77
39491;BME280;25175;50.140;18.990;2023-02-28T03:37:41;99707.97;;;-0.79;47.90
39491;BME280;25175;50.140;18.990;2023-02-28T03:40:58;99718.81;;;-0.87;48.05
39491;BME280;25175;50.140;18.990;2023-02-28T03:44:14;99715.72;;;-0.92;48.22
39491;BME280;25175;50.140;18.990;2023-02-28T03:47:28;99729.63;;;-0.94;48.52
39491;BME280;25175;50.140;18.990;2023-02-28T03:50:40;99719.66;;;-0.99;48.51
39491;BME280;25175;50.140;18.990;2023-02-28T03:53:52;99723.47;;;-1.04;48.78
39491;BME280;25175;50.140;18.990;2023-02-28T03:57:12;99730.28;;;-1.03;49.39
39491;BME280;25175;50.140;18.990;2023-02-28T04:00:30;99731.09;;;-1.03;49.40
39491;BME280;25175;50.140;18.990;2023-02-28T04:03:39;99738.94;;;-1.04;49.42
39491;BME280;25175;50.140;18.990;2023-02-28T04:06:44;99731.22;;;-1.17;49.59
39491;BME280;25175;50.140;18.990;2023-02-28T04:09:49;99731.50;;;-1.09;50.08
39491;BME280;25175;50.140;18.990;2023-02-28T04:12:57;99735.94;;;-1.11;49.90
39491;BME280;25175;50.140;18.990;2023-02-28T04:16:01;99742.84;;;-1.11;50.03
39491;BME280;25175;50.140;18.990;2023-02-28T04:19:13;99724.28;;;-1.66;50.29
39491;BME280;25175;50.140;18.990;2023-02-28T04:22:18;99743.25;;;-1.17;50.27
39491;BME280;25175;50.140;18.990;2023-02-28T04:25:23;99701.97;;;-1.53;50.46
39491;BME280;25175;50.140;18.990;2023-02-28T04:28:31;99755.84;;;-1.25;50.77
39491;BME280;25175;50.140;18.990;2023-02-28T04:31:37;99745.41;;;-1.36;51.00
39491;BME280;25175;50.140;18.990;2023-02-28T04:34:41;99762.19;;;-1.31;51.34
39491;BME280;25175;50.140;18.990;2023-02-28T04:37:47;99711.94;;;-1.61;51.24
39491;BME280;25175;50.140;18.990;2023-02-28T04:40:51;99767.88;;;-1.13;51.59
39491;BME280;25175;50.140;18.990;2023-02-28T04:43:59;99754.50;;;-1.06;51.64
39491;BME280;25175;50.140;18.990;2023-02-28T04:47:04;99763.44;;;-0.99;51.11
39491;BME280;25175;50.140;18.990;2023-02-28T04:50:10;99752.81;;;-0.94;51.02
39491;BME280;25175;50.140;18.990;2023-02-28T04:53:14;99759.22;;;-1.00;50.89
39491;BME280;25175;50.140;18.990;2023-02-28T04:56:20;99753.22;;;-1.13;51.08
39491;BME280;25175;50.140;18.990;2023-02-28T04:59:27;99745.19;;;-1.33;51.31
39491;BME280;25175;50.140;18.990;2023-02-28T05:02:34;99676.25;;;-2.17;51.65
39491;BME280;25175;50.140;18.990;2023-02-28T05:05:38;99723.25;;;-1.64;52.17
39491;BME280;25175;50.140;18.990;2023-02-28T05:08:44;99290.44;;;-4.28;52.38
39491;BME280;25175;50.140;18.990;2023-02-28T05:11:48;99752.06;;;-1.59;52.79
39491;BME280;25175;50.140;18.990;2023-02-28T05:14:56;99762.78;;;-1.65;53.20
39491;BME280;25175;50.140;18.990;2023-02-28T05:18:02;99762.59;;;-1.62;53.38
39491;BME280;25175;50.140;18.990;2023-02-28T05:21:23;99760.00;;;-1.62;53.19
39491;BME280;25175;50.140;18.990;2023-02-28T05:24:31;99768.75;;;-1.64;53.33
39491;BME280;25175;50.140;18.990;2023-02-28T05:27:36;99568.38;;;-2.97;53.55
39491;BME280;25175;50.140;18.990;2023-02-28T05:30:43;99776.03;;;-1.71;53.70
39491;BME280;25175;50.140;18.990;2023-02-28T05:33:48;99783.75;;;-1.71;53.83
39491;BME280;25175;50.140;18.990;2023-02-28T05:36:53;99781.09;;;-1.69;54.00
39491;BME280;25175;50.140;18.990;2023-02-28T05:39:58;99779.94;;;-1.65;54.04
39491;BME280;25175;50.140;18.990;2023-02-28T05:43:02;99783.97;;;-1.61;53.62
39491;BME280;25175;50.140;18.990;2023-02-28T05:46:12;99784.38;;;-1.67;53.79
39491;BME280;25175;50.140;18.990;2023-02-28T05:49:16;99785.81;;;-1.76;54.12
39491;BME280;25175;50.140;18.990;2023-02-28T05:52:21;99784.56;;;-1.83;54.40
39491;BME280;25175;50.140;18.990;2023-02-28T05:55:26;99763.31;;;-1.99;54.58
39491;BME280;25175;50.140;18.990;2023-02-28T05:58:31;99802.84;;;-1.87;54.85
39491;BME280;25175;50.140;18.990;2023-02-28T06:01:40;99783.31;;;-1.90;54.93
39491;BME280;25175;50.140;18.990;2023-02-28T06:04:49;99797.75;;;-1.75;54.67
39491;BME280;25175;50.140;18.990;2023-02-28T06:07:54;99810.59;;;-1.75;54.77
39491;BME280;25175;50.140;18.990;2023-02-28T06:11:02;99806.38;;;-1.76;54.51
39491;BME280;25175;50.140;18.990;2023-02-28T06:14:09;99809.25;;;-1.80;54.51
39491;BME280;25175;50.140;18.990;2023-02-28T06:17:21;99811.28;;;-1.85;54.80
39491;BME280;25175;50.140;18.990;2023-02-28T06:20:27;99825.25;;;-1.89;55.08
39491;BME280;25175;50.140;18.990;2023-02-28T06:23:32;99790.53;;;-2.09;55.15
39491;BME280;25175;50.140;18.990;2023-02-28T06:26:38;99823.72;;;-1.92;55.37
39491;BME280;25175;50.140;18.990;2023-02-28T06:29:44;99823.81;;;-1.93;55.46
39491;BME280;25175;50.140;18.990;2023-02-28T06:32:51;99437.19;;;-4.26;55.50
39491;BME280;25175;50.140;18.990;2023-02-28T06:35:56;99835.66;;;-1.91;55.98
39491;BME280;25175;50.140;18.990;2023-02-28T06:39:00;99844.66;;;-1.84;56.04
39491;BME280;25175;50.140;18.990;2023-02-28T06:42:06;99829.72;;;-1.79;55.64
39491;BME280;25175;50.140;18.990;2023-02-28T06:45:11;99827.16;;;-1.79;55.66
39491;BME280;25175;50.140;18.990;2023-02-28T06:48:20;99832.94;;;-1.75;55.43
39491;BME280;25175;50.140;18.990;2023-02-28T06:51:24;99834.38;;;-1.71;55.39
39491;BME280;25175;50.140;18.990;2023-02-28T06:54:29;99841.19;;;-1.70;55.42
39491;BME280;25175;50.140;18.990;2023-02-28T06:57:35;99855.50;;;-1.66;55.28
39491;BME280;25175;50.140;18.990;2023-02-28T07:00:41;99828.34;;;-1.70;55.47
39491;BME280;25175;50.140;18.990;2023-02-28T07:03:48;99849.78;;;-1.57;55.17
39491;BME280;25175;50.140;18.990;2023-02-28T07:06:54;99843.50;;;-1.53;54.92
39491;BME280;25175;50.140;18.990;2023-02-28T07:09:59;99849.28;;;-1.50;54.70
39491;BME280;25175;50.140;18.990;2023-02-28T07:13:07;99858.34;;;-1.44;54.81
39491;BME280;25175;50.140;18.990;2023-02-28T07:16:12;99852.00;;;-1.39;54.61
39491;BME280;25175;50.140;18.990;2023-02-28T07:19:20;99856.94;;;-1.36;54.17
39491;BME280;25175;50.140;18.990;2023-02-28T07:22:24;99861.81;;;-1.31;54.15
39491;BME280;25175;50.140;18.990;2023-02-28T07:25:30;99838.81;;;-1.34;53.82
39491;BME280;25175;50.140;18.990;2023-02-28T07:28:34;99855.31;;;-1.24;53.84
39491;BME280;25175;50.140;18.990;2023-02-28T07:31:39;99857.56;;;-1.20;53.95
39491;BME280;25175;50.140;18.990;2023-02-28T07:34:47;99844.00;;;-1.22;53.65
39491;BME280;25175;50.140;18.990;2023-02-28T07:37:52;99854.50;;;-1.12;53.59
39491;BME280;25175;50.140;18.990;2023-02-28T07:40:56;99850.59;;;-1.18;53.57
39491;BME280;25175;50.140;18.990;2023-02-28T07:44:01;99858.22;;;-1.04;53.49
39491;BME280;25175;50.140;18.990;2023-02-28T07:47:06;99842.34;;;-1.10;52.95
39491;BME280;25175;50.140;18.990;2023-02-28T07:50:15;99863.91;;;-0.99;53.12
39491;BME280;25175;50.140;18.990;2023-02-28T07:53:20;99860.19;;;-0.95;53.19
39491;BME280;25175;50.140;18.990;2023-02-28T07:56:25;99863.19;;;-0.88;52.79
39491;BME280;25175;50.140;18.990;2023-02-28T07:59:29;99845.56;;;-0.94;52.75
39491;BME280;25175;50.140;18.990;2023-02-28T08:02:35;99862.38;;;-0.76;52.64
39491;BME280;25175;50.140;18.990;2023-02-28T08:05:43;99866.88;;;-0.67;52.48
39491;BME280;25175;50.140;18.990;2023-02-28T08:08:48;99859.59;;;-0.61;52.18
39491;BME280;25175;50.140;18.990;2023-02-28T08:11:53;99853.28;;;-0.57;51.92
39491;BME280;25175;50.140;18.990;2023-02-28T08:14:58;99824.84;;;-0.80;51.55
39491;BME280;25175;50.140;18.990;2023-02-28T08:18:02;99865.03;;;-0.53;51.25
39491;BME280;25175;50.140;18.990;2023-02-28T08:21:11;99860.50;;;-0.49;50.83
39491;BME280;25175;50.140;18.990;2023-02-28T08:24:15;99871.22;;;-0.43;50.60
39491;BME280;25175;50.140;18.990;2023-02-28T08:27:20;99866.47;;;-0.36;50.63
39491;BME280;25175;50.140;18.990;2023-02-28T08:30:25;99853.78;;;-0.39;50.00
39491;BME280;25175;50.140;18.990;2023-02-28T08:33:30;99868.00;;;-0.21;50.03
39491;BME280;25175;50.140;18.990;2023-02-28T08:36:38;99902.56;;;-0.24;49.66
39491;BME280;25175;50.140;18.990;2023-02-28T08:39:43;99862.06;;;-0.11;49.47
39491;BME280;25175;50.140;18.990;2023-02-28T08:42:48;99889.44;;;-0.21;49.79
39491;BME280;25175;50.140;18.990;2023-02-28T08:45:53;99873.06;;;0.04;49.47
39491;BME280;25175;50.140;18.990;2023-02-28T08:48:58;99868.31;;;0.10;49.08
39491;BME280;25175;50.140;18.990;2023-02-28T08:52:06;99861.56;;;0.20;49.27
39491;BME280;25175;50.140;18.990;2023-02-28T08:55:10;99861.84;;;0.28;48.41
39491;BME280;25175;50.140;18.990;2023-02-28T08:58:15;99867.91;;;0.40;48.01
39491;BME280;25175;50.140;18.990;2023-02-28T09:01:22;99860.41;;;0.48;47.67
39491;BME280;25175;50.140;18.990;2023-02-28T09:04:28;99867.81;;;0.52;46.40
39491;BME280;25175;50.140;18.990;2023-02-28T09:07:36;99866.34;;;0.61;46.60
39491;BME280;25175;50.140;18.990;2023-02-28T09:10:41;99863.31;;;0.67;45.97
39491;BME280;25175;50.140;18.990;2023-02-28T09:13:46;99872.03;;;0.77;45.87
39491;BME280;25175;50.140;18.990;2023-02-28T09:16:51;99863.72;;;0.84;46.21
39491;BME280;25175;50.140;18.990;2023-02-28T09:19:55;99846.66;;;0.82;45.47
39491;BME280;25175;50.140;18.990;2023-02-28T09:23:04;99863.19;;;1.03;45.67
39491;BME280;25175;50.140;18.990;2023-02-28T09:26:13;99867.66;;;1.12;44.74
39491;BME280;25175;50.140;18.990;2023-02-28T09:29:20;99854.19;;;1.19;43.97
39491;BME280;25175;50.140;18.990;2023-02-28T09:32:24;99854.97;;;1.20;43.59
39491;BME280;25175;50.140;18.990;2023-02-28T09:35:29;99856.53;;;1.22;43.60
39491;BME280;25175;50.140;18.990;2023-02-28T09:38:36;99849.34;;;1.26;43.05
39491;BME280;25175;50.140;18.990;2023-02-28T09:41:44;99830.78;;;1.21;43.42
39491;BME280;25175;50.140;18.990;2023-02-28T09:44:53;99854.94;;;1.54;44.10
39491;BME280;25175;50.140;18.990;2023-02-28T09:48:04;99851.28;;;1.68;43.78
39491;BME280;25175;50.140;18.990;2023-02-28T09:51:29;99856.78;;;1.96;43.50
39491;BME280;25175;50.140;18.990;2023-02-28T09:54:42;99867.44;;;2.14;42.67
39491;BME280;25175;50.140;18.990;2023-02-28T09:57:47;99869.66;;;2.29;42.50
39491;BME280;25175;50.140;18.990;2023-02-28T10:01:02;99870.41;;;2.52;42.27
39491;BME280;25175;50.140;18.990;2023-02-28T10:04:21;99850.81;;;2.59;40.76
39491;BME280;25175;50.140;18.990;2023-02-28T10:07:55;99861.97;;;2.70;41.02
39491;BME280;25175;50.140;18.990;2023-02-28T10:11:12;99869.38;;;2.75;40.62
39491;BME280;25175;50.140;18.990;2023-02-28T10:14:26;99853.00;;;2.74;41.35
39491;BME280;25175;50.140;18.990;2023-02-28T10:17:39;99768.13;;;2.46;41.24
39491;BME280;25175;50.140;18.990;2023-02-28T10:20:49;99847.25;;;3.12;40.90
39491;BME280;25175;50.140;18.990;2023-02-28T10:24:03;99835.38;;;3.09;42.28
39491;BME280;25175;50.140;18.990;2023-02-28T10:27:20;99850.81;;;3.41;40.98
39491;BME280;25175;50.140;18.990;2023-02-28T10:30:27;99850.25;;;3.37;39.73
39491;BME280;25175;50.140;18.990;2023-02-28T10:33:35;99852.22;;;3.45;40.64
39491;BME280;25175;50.140;18.990;2023-02-28T10:36:40;99837.13;;;3.59;41.33
39491;BME280;25175;50.140;18.990;2023-02-28T10:39:47;99835.19;;;3.82;40.01
39491;BME280;25175;50.140;18.990;2023-02-28T10:42:59;99836.31;;;3.98;39.80
39491;BME280;25175;50.140;18.990;2023-02-28T10:46:14;99832.09;;;4.07;39.26
39491;BME280;25175;50.140;18.990;2023-02-28T10:49:27;99815.56;;;4.08;39.35
39491;BME280;25175;50.140;18.990;2023-02-28T10:52:37;99825.03;;;4.28;39.74
39491;BME280;25175;50.140;18.990;2023-02-28T10:55:43;99819.28;;;4.43;39.34
39491;BME280;25175;50.140;18.990;2023-02-28T10:58:54;99795.09;;;4.33;39.00
39491;BME280;25175;50.140;18.990;2023-02-28T11:01:59;99804.53;;;4.63;38.32
39491;BME280;25175;50.140;18.990;2023-02-28T11:05:27;99819.44;;;4.80;37.85
39491;BME280;25175;50.140;18.990;2023-02-28T11:08:34;99820.22;;;4.90;38.38
39491;BME280;25175;50.140;18.990;2023-02-28T11:11:49;99810.63;;;5.00;38.67
39491;BME280;25175;50.140;18.990;2023-02-28T11:15:00;99719.84;;;4.51;37.46
39491;BME280;25175;50.140;18.990;2023-02-28T11:18:21;99794.88;;;5.01;38.25
39491;BME280;25175;50.140;18.990;2023-02-28T11:21:32;99787.16;;;5.09;38.12
39491;BME280;25175;50.140;18.990;2023-02-28T11:24:46;99797.97;;;5.24;38.08
39491;BME280;25175;50.140;18.990;2023-02-28T11:27:56;99794.09;;;5.28;37.60
39491;BME280;25175;50.140;18.990;2023-02-28T11:31:16;99786.47;;;5.26;37.37
39491;BME280;25175;50.140;18.990;2023-02-28T11:34:25;99787.56;;;5.24;37.78
39491;BME280;25175;50.140;18.990;2023-02-28T11:37:33;99781.25;;;5.26;37.53
39491;BME280;25175;50.140;18.990;2023-02-28T11:40:46;99773.97;;;5.30;37.73
39491;BME280;25175;50.140;18.990;2023-02-28T11:44:20;99698.38;;;4.95;37.62
39491;BME280;25175;50.140;18.990;2023-02-28T11:47:47;99754.66;;;5.32;37.30
39491;BME280;25175;50.140;18.990;2023-02-28T11:51:08;99752.84;;;5.33;37.36
39491;BME280;25175;50.140;18.990;2023-02-28T11:54:32;99748.53;;;5.24;37.29
39491;BME280;25175;50.140;18.990;2023-02-28T11:58:31;99754.25;;;5.27;37.15
39491;BME280;25175;50.140;18.990;2023-02-28T12:02:08;99743.16;;;5.25;37.17
39491;BME280;25175;50.140;18.990;2023-02-28T12:05:43;99757.41;;;5.31;37.49
39491;BME280;25175;50.140;18.990;2023-02-28T12:09:02;99750.88;;;5.17;36.23
39491;BME280;25175;50.140;18.990;2023-02-28T12:12:34;99744.78;;;4.90;37.12
39491;BME280;25175;50.140;18.990;2023-02-28T12:16:15;99747.72;;;4.68;37.33
39491;BME280;25175;50.140;18.990;2023-02-28T12:19:41;99746.34;;;4.73;37.68
39491;BME280;25175;50.140;18.990;2023-02-28T12:23:10;99740.84;;;4.76;37.26
39491;BME280;25175;50.140;18.990;2023-02-28T12:26:37;99755.34;;;4.79;37.31
39491;BME280;25175;50.140;18.990;2023-02-28T12:29:50;99678.00;;;4.44;37.74
39491;BME280;25175;50.140;18.990;2023-02-28T12:33:05;99751.50;;;4.92;38.06
39491;BME280;25175;50.140;18.990;2023-02-28T12:36:16;99749.44;;;4.96;37.44
39491;BME280;25175;50.140;18.990;2023-02-28T12:39:32;99753.91;;;5.03;37.96
39491;BME280;25175;50.140;18.990;2023-02-28T12:42:49;99735.97;;;5.10;37.67
39491;BME280;25175;50.140;18.990;2023-02-28T12:46:00;99740.06;;;5.12;38.66
39491;BME280;25175;50.140;18.990;2023-02-28T12:49:17;99745.09;;;5.23;38.45
39491;BME280;25175;50.140;18.990;2023-02-28T12:52:48;99741.25;;;5.27;38.05
39491;BME280;25175;50.140;18.990;2023-02-28T12:56:12;99399.03;;;3.26;37.36
39491;BME280;25175;50.140;18.990;2023-02-28T12:59:30;99737.94;;;5.35;36.98
39491;BME280;25175;50.140;18.990;2023-02-28T13:06:52;99728.66;;;5.50;37.28
39491;BME280;25175;50.140;18.990;2023-02-28T13:10:08;99724.16;;;5.52;37.60
39491;BME280;25175;50.140;18.990;2023-02-28T13:13:20;99729.03;;;5.55;36.56
39491;BME280;25175;50.140;18.990;2023-02-28T13:16:53;99723.25;;;5.34;36.94
39491;BME280;25175;50.140;18.990;2023-02-28T13:20:01;99723.16;;;5.26;36.86
39491;BME280;25175;50.140;18.990;2023-02-28T13:23:37;99721.03;;;5.12;36.72
39491;BME280;25175;50.140;18.990;2023-02-28T13:31:03;99695.50;;;4.98;36.82
39491;BME280;25175;50.140;18.990;2023-02-28T13:34:14;99717.56;;;5.21;36.69
39491;BME280;25175;50.140;18.990;2023-02-28T13:37:35;99721.59;;;5.15;36.62
39491;BME280;25175;50.140;18.990;2023-02-28T13:40:46;99708.13;;;5.20;37.45
39491;BME280;25175;50.140;18.990;2023-02-28T13:44:02;99712.31;;;5.30;37.59
39491;BME280;25175;50.140;18.990;2023-02-28T13:47:35;99712.28;;;5.40;37.30
39491;BME280;25175;50.140;18.990;2023-02-28T13:50:45;99703.22;;;5.44;37.19
39491;BME280;25175;50.140;18.990;2023-02-28T13:54:00;99702.78;;;5.48;37.16
39491;BME280;25175;50.140;18.990;2023-02-28T13:57:23;99695.13;;;5.47;37.29
39491;BME280;25175;50.140;18.990;2023-02-28T14:00:59;99695.66;;;5.50;37.17
39491;BME280;25175;50.140;18.990;2023-02-28T14:04:43;99691.78;;;5.54;36.99
39491;BME280;25175;50.140;18.990;2023-02-28T14:07:58;99679.00;;;5.61;36.44
39491;BME280;25175;50.140;18.990;2023-02-28T14:11:25;99668.38;;;5.54;36.67
39491;BME280;25175;50.140;18.990;2023-02-28T14:14:54;99673.13;;;5.59;36.72
39491;BME280;25175;50.140;18.990;2023-02-28T14:18:03;99662.19;;;5.55;36.68
39491;BME280;25175;50.140;18.990;2023-02-28T14:21:28;99666.75;;;5.71;36.67
39491;BME280;25175;50.140;18.990;2023-02-28T14:25:04;99598.19;;;5.35;36.59
39491;BME280;25175;50.140;18.990;2023-02-28T14:28:27;99667.28;;;5.74;36.12
39491;BME280;25175;50.140;18.990;2023-02-28T14:31:58;99664.84;;;5.73;36.82
39491;BME280;25175;50.140;18.990;2023-02-28T14:35:35;99673.06;;;5.68;36.02
39491;BME280;25175;50.140;18.990;2023-02-28T14:38:55;99668.56;;;5.70;36.56
39491;BME280;25175;50.140;18.990;2023-02-28T14:42:02;99658.38;;;5.50;36.08
39491;BME280;25175;50.140;18.990;2023-02-28T14:45:18;99665.53;;;5.48;36.70
39491;BME280;25175;50.140;18.990;2023-02-28T14:48:25;99660.06;;;5.41;36.46
39491;BME280;25175;50.140;18.990;2023-02-28T14:51:31;99628.19;;;5.12;36.53
39491;BME280;25175;50.140;18.990;2023-02-28T14:54:40;99651.22;;;5.07;36.77
39491;BME280;25175;50.140;18.990;2023-02-28T14:57:53;99676.06;;;5.02;36.90
39491;BME280;25175;50.140;18.990;2023-02-28T15:01:01;99644.63;;;4.40;37.07
39491;BME280;25175;50.140;18.990;2023-02-28T15:04:22;99676.00;;;4.75;37.14
39491;BME280;25175;50.140;18.990;2023-02-28T15:07:32;99674.94;;;4.58;37.11
39491;BME280;25175;50.140;18.990;2023-02-28T15:10:43;99675.81;;;4.40;37.65
39491;BME280;25175;50.140;18.990;2023-02-28T15:13:55;99663.81;;;4.20;38.15
39491;BME280;25175;50.140;18.990;2023-02-28T15:17:08;99683.09;;;4.17;37.87
39491;BME280;25175;50.140;18.990;2023-02-28T15:20:26;99674.59;;;4.15;38.40
39491;BME280;25175;50.140;18.990;2023-02-28T15:23:34;99674.59;;;4.15;38.59
39491;BME280;25175;50.140;18.990;2023-02-28T15:26:46;99657.28;;;4.06;38.49
39491;BME280;25175;50.140;18.990;2023-02-28T15:29:59;99651.28;;;3.96;38.11
39491;BME280;25175;50.140;18.990;2023-02-28T15:33:20;99662.59;;;4.05;38.32
39491;BME280;25175;50.140;18.990;2023-02-28T15:36:29;99678.84;;;4.07;38.63
39491;BME280;25175;50.140;18.990;2023-02-28T15:39:43;99682.28;;;4.07;38.33
39491;BME280;25175;50.140;18.990;2023-02-28T15:43:04;99635.00;;;3.85;38.32
39491;BME280;25175;50.140;18.990;2023-02-28T15:46:12;99671.78;;;4.09;37.97
39491;BME280;25175;50.140;18.990;2023-02-28T15:49:21;99667.13;;;4.03;38.44
39491;BME280;25175;50.140;18.990;2023-02-28T15:52:33;99672.44;;;4.01;38.61
39491;BME280;25175;50.140;18.990;2023-02-28T15:55:42;99667.69;;;3.97;38.46
39491;BME280;25175;50.140;18.990;2023-02-28T15:58:53;99670.78;;;3.91;38.92
39491;BME280;25175;50.140;18.990;2023-02-28T16:02:14;99676.41;;;3.86;39.14
39491;BME280;25175;50.140;18.990;2023-02-28T16:05:24;99656.69;;;3.74;39.56
39491;BME280;25175;50.140;18.990;2023-02-28T16:08:36;99680.38;;;3.81;39.32
39491;BME280;25175;50.140;18.990;2023-02-28T16:11:45;99678.72;;;3.80;40.02
39491;BME280;25175;50.140;18.990;2023-02-28T16:14:57;99685.78;;;3.78;39.52
39491;BME280;25175;50.140;18.990;2023-02-28T16:18:11;99675.97;;;3.72;39.57
39491;BME280;25175;50.140;18.990;2023-02-28T16:21:17;99667.09;;;3.74;39.34
39491;BME280;25175;50.140;18.990;2023-02-28T16:24:22;99674.91;;;3.84;39.68
39491;BME280;25175;50.140;18.990;2023-02-28T16:27:31;99684.31;;;3.85;39.54
39491;BME280;25175;50.140;18.990;2023-02-28T16:30:40;99687.06;;;3.83;39.56
39491;BME280;25175;50.140;18.990;2023-02-28T16:33:45;99597.94;;;3.26;39.83
39491;BME280;25175;50.140;18.990;2023-02-28T16:36:51;99686.22;;;3.73;39.56
39491;BME280;25175;50.140;18.990;2023-02-28T16:39:56;99699.56;;;3.69;39.65
39491;BME280;25175;50.140;18.990;2023-02-28T16:43:07;99693.56;;;3.59;39.78
39491;BME280;25175;50.140;18.990;2023-02-28T16:46:20;99705.72;;;3.49;39.87
39491;BME280;25175;50.140;18.990;2023-02-28T16:49:25;99054.41;;;-0.58;40.40
39491;BME280;25175;50.140;18.990;2023-02-28T16:52:30;99677.06;;;3.11;40.46
39491;BME280;25175;50.140;18.990;2023-02-28T16:55:37;99710.41;;;3.25;40.59
39491;BME280;25175;50.140;18.990;2023-02-28T16:58:41;99708.22;;;3.20;40.59
39491;BME280;25175;50.140;18.990;2023-02-28T17:01:49;99715.13;;;3.10;40.67